sensor_id;sensor_type;location;lat;lon;timestamp;P1;P2;P0
72793;PMS5003;63436;26.334;50.194;2022-12-07T00:00:30;58;58;
72793;PMS5003;63436;26.334;50.194;2022-12-07T00:02:56;63;62;
72793;PMS5003;63436;26.334;50.194;2022-12-07T00:05:21;66;64;
72793;PMS5003;63436;26.334;50.194;2022-12-07T00:07:49;74;66;
72793;PMS5003;63436;26.334;50.194;2022-12-07T00:10:11;62;62;
72793;PMS5003;63436;26.334;50.194;2022-12-07T00:12:37;65;63;
72793;PMS5003;63436;26.334;50.194;2022-12-07T00:15:03;68;65;
72793;PMS5003;63436;26.334;50.194;2022-12-07T00:17:28;74;68;
72793;PMS5003;63436;26.334;50.194;2022-12-07T00:19:53;69;66;
72793;PMS5003;63436;26.334;50.194;2022-12-07T00:22:19;67;63;
72793;PMS5003;63436;26.334;50.194;2022-12-07T00:24:45;71;68;
72793;PMS5003;63436;26.334;50.194;2022-12-07T00:27:10;75;70;
72793;PMS5003;63436;26.334;50.194;2022-12-07T00:29:36;81;71;
72793;PMS5003;63436;26.334;50.194;2022-12-07T00:32:01;71;67;
72793;PMS5003;63436;26.334;50.194;2022-12-07T00:34:29;71;68;
72793;PMS5003;63436;26.334;50.194;2022-12-07T00:36:52;71;69;
72793;PMS5003;63436;26.334;50.194;2022-12-07T00:39:17;70;64;
72793;PMS5003;63436;26.334;50.194;2022-12-07T00:41:43;69;65;
72793;PMS5003;63436;26.334;50.194;2022-12-07T00:44:09;68;67;
72793;PMS5003;63436;26.334;50.194;2022-12-07T00:46:34;75;70;
72793;PMS5003;63436;26.334;50.194;2022-12-07T00:48:59;70;65;
72793;PMS5003;63436;26.334;50.194;2022-12-07T00:51:25;63;59;
72793;PMS5003;63436;26.334;50.194;2022-12-07T00:53:51;62;59;
72793;PMS5003;63436;26.334;50.194;2022-12-07T00:56:16;63;63;
72793;PMS5003;63436;26.334;50.194;2022-12-07T00:58:41;58;56;
72793;PMS5003;63436;26.334;50.194;2022-12-07T01:01:06;58;55;
72793;PMS5003;63436;26.334;50.194;2022-12-07T01:03:32;62;60;
72793;PMS5003;63436;26.334;50.194;2022-12-07T01:05:57;65;61;
72793;PMS5003;63436;26.334;50.194;2022-12-07T01:08:23;68;64;
72793;PMS5003;63436;26.334;50.194;2022-12-07T01:10:48;63;62;
72793;PMS5003;63436;26.334;50.194;2022-12-07T01:13:13;67;64;
72793;PMS5003;63436;26.334;50.194;2022-12-07T01:15:39;66;64;
72793;PMS5003;63436;26.334;50.194;2022-12-07T01:18:04;63;61;
72793;PMS5003;63436;26.334;50.194;2022-12-07T01:20:30;66;60;
72793;PMS5003;63436;26.334;50.194;2022-12-07T01:22:55;69;63;
72793;PMS5003;63436;26.334;50.194;2022-12-07T01:25:20;59;57;
72793;PMS5003;63436;26.334;50.194;2022-12-07T01:27:46;57;56;
72793;PMS5003;63436;26.334;50.194;2022-12-07T01:30:16;61;60;
72793;PMS5003;63436;26.334;50.194;2022-12-07T01:32:36;65;58;
72793;PMS5003;63436;26.334;50.194;2022-12-07T01:35:02;61;60;
72793;PMS5003;63436;26.334;50.194;2022-12-07T01:37:27;63;60;
72793;PMS5003;63436;26.334;50.194;2022-12-07T01:39:52;58;56;
72793;PMS5003;63436;26.334;50.194;2022-12-07T01:42:18;59;58;
72793;PMS5003;63436;26.334;50.194;2022-12-07T01:47:08;65;62;
72793;PMS5003;63436;26.334;50.194;2022-12-07T01:49:35;57;54;
72793;PMS5003;63436;26.334;50.194;2022-12-07T01:52:03;66;59;
72793;PMS5003;63436;26.334;50.194;2022-12-07T01:54:24;57;54;
72793;PMS5003;63436;26.334;50.194;2022-12-07T01:56:50;61;57;
72793;PMS5003;63436;26.334;50.194;2022-12-07T01:59:15;53;53;
72793;PMS5003;63436;26.334;50.194;2022-12-07T02:01:40;58;55;
72793;PMS5003;63436;26.334;50.194;2022-12-07T02:04:06;63;61;
72793;PMS5003;63436;26.334;50.194;2022-12-07T02:06:31;61;55;
72793;PMS5003;63436;26.334;50.194;2022-12-07T02:08:57;54;51;
72793;PMS5003;63436;26.334;50.194;2022-12-07T02:11:23;61;60;
72793;PMS5003;63436;26.334;50.194;2022-12-07T02:13:47;51;49;
72793;PMS5003;63436;26.334;50.194;2022-12-07T02:16:16;56;51;
72793;PMS5003;63436;26.334;50.194;2022-12-07T02:18:43;57;53;
72793;PMS5003;63436;26.334;50.194;2022-12-07T02:21:05;59;55;
72793;PMS5003;63436;26.334;50.194;2022-12-07T02:23:34;57;53;
72793;PMS5003;63436;26.334;50.194;2022-12-07T02:25:59;69;59;
72793;PMS5003;63436;26.334;50.194;2022-12-07T02:28:21;57;54;
72793;PMS5003;63436;26.334;50.194;2022-12-07T02:30:46;55;52;
72793;PMS5003;63436;26.334;50.194;2022-12-07T02:33:11;57;55;
72793;PMS5003;63436;26.334;50.194;2022-12-07T02:35:37;54;53;
72793;PMS5003;63436;26.334;50.194;2022-12-07T02:38:02;59;52;
72793;PMS5003;63436;26.334;50.194;2022-12-07T02:40:28;55;52;
72793;PMS5003;63436;26.334;50.194;2022-12-07T02:42:53;60;56;
72793;PMS5003;63436;26.334;50.194;2022-12-07T02:45:17;56;50;
72793;PMS5003;63436;26.334;50.194;2022-12-07T02:47:42;55;55;
72793;PMS5003;63436;26.334;50.194;2022-12-07T02:50:07;55;52;
72793;PMS5003;63436;26.334;50.194;2022-12-07T02:52:32;51;44;
72793;PMS5003;63436;26.334;50.194;2022-12-07T02:54:58;57;54;
72793;PMS5003;63436;26.334;50.194;2022-12-07T02:57:28;56;56;
72793;PMS5003;63436;26.334;50.194;2022-12-07T02:59:53;55;50;
72793;PMS5003;63436;26.334;50.194;2022-12-07T03:02:17;56;52;
72793;PMS5003;63436;26.334;50.194;2022-12-07T03:04:42;59;57;
72793;PMS5003;63436;26.334;50.194;2022-12-07T03:07:08;58;56;
72793;PMS5003;63436;26.334;50.194;2022-12-07T03:09:33;62;59;
72793;PMS5003;63436;26.334;50.194;2022-12-07T03:12:00;63;59;
72793;PMS5003;63436;26.334;50.194;2022-12-07T03:14:23;57;54;
72793;PMS5003;63436;26.334;50.194;2022-12-07T03:16:47;59;59;
72793;PMS5003;63436;26.334;50.194;2022-12-07T03:19:13;70;63;
72793;PMS5003;63436;26.334;50.194;2022-12-07T03:21:40;59;59;
72793;PMS5003;63436;26.334;50.194;2022-12-07T03:24:06;61;58;
72793;PMS5003;63436;26.334;50.194;2022-12-07T03:26:34;64;61;
72793;PMS5003;63436;26.334;50.194;2022-12-07T03:28:55;64;59;
72793;PMS5003;63436;26.334;50.194;2022-12-07T03:31:21;61;59;
72793;PMS5003;63436;26.334;50.194;2022-12-07T03:33:46;58;55;
72793;PMS5003;63436;26.334;50.194;2022-12-07T03:36:11;55;53;
72793;PMS5003;63436;26.334;50.194;2022-12-07T03:38:36;66;61;
72793;PMS5003;63436;26.334;50.194;2022-12-07T03:41:01;60;56;
72793;PMS5003;63436;26.334;50.194;2022-12-07T03:43:27;63;58;
72793;PMS5003;63436;26.334;50.194;2022-12-07T03:45:56;76;70;
72793;PMS5003;63436;26.334;50.194;2022-12-07T03:48:19;66;60;
72793;PMS5003;63436;26.334;50.194;2022-12-07T03:50:44;60;55;
72793;PMS5003;63436;26.334;50.194;2022-12-07T03:53:09;61;60;
72793;PMS5003;63436;26.334;50.194;2022-12-07T03:55:34;65;61;
72793;PMS5003;63436;26.334;50.194;2022-12-07T03:57:59;60;59;
72793;PMS5003;63436;26.334;50.194;2022-12-07T04:00:25;70;61;
72793;PMS5003;63436;26.334;50.194;2022-12-07T04:02:51;68;65;
72793;PMS5003;63436;26.334;50.194;2022-12-07T04:05:15;73;63;
72793;PMS5003;63436;26.334;50.194;2022-12-07T04:07:41;78;67;
72793;PMS5003;63436;26.334;50.194;2022-12-07T04:10:07;66;66;
72793;PMS5003;63436;26.334;50.194;2022-12-07T04:12:32;64;59;
72793;PMS5003;63436;26.334;50.194;2022-12-07T04:14:58;65;62;
72793;PMS5003;63436;26.334;50.194;2022-12-07T04:17:23;65;62;
72793;PMS5003;63436;26.334;50.194;2022-12-07T04:19:49;71;66;
72793;PMS5003;63436;26.334;50.194;2022-12-07T04:22:15;66;62;
72793;PMS5003;63436;26.334;50.194;2022-12-07T04:24:40;67;62;
72793;PMS5003;63436;26.334;50.194;2022-12-07T04:27:05;69;66;
72793;PMS5003;63436;26.334;50.194;2022-12-07T04:29:31;64;61;
72793;PMS5003;63436;26.334;50.194;2022-12-07T04:31:55;72;65;
72793;PMS5003;63436;26.334;50.194;2022-12-07T04:34:20;71;63;
72793;PMS5003;63436;26.334;50.194;2022-12-07T04:36:47;74;69;
72793;PMS5003;63436;26.334;50.194;2022-12-07T04:39:18;81;72;
72793;PMS5003;63436;26.334;50.194;2022-12-07T04:41:37;78;68;
72793;PMS5003;63436;26.334;50.194;2022-12-07T04:44:03;75;69;
72793;PMS5003;63436;26.334;50.194;2022-12-07T04:46:28;75;66;
72793;PMS5003;63436;26.334;50.194;2022-12-07T04:48:53;75;72;
72793;PMS5003;63436;26.334;50.194;2022-12-07T04:51:19;68;62;
72793;PMS5003;63436;26.334;50.194;2022-12-07T04:53:43;77;70;
72793;PMS5003;63436;26.334;50.194;2022-12-07T04:56:09;62;60;
72793;PMS5003;63436;26.334;50.194;2022-12-07T04:58:34;76;75;
72793;PMS5003;63436;26.334;50.194;2022-12-07T05:01:00;72;68;
72793;PMS5003;63436;26.334;50.194;2022-12-07T05:03:25;72;63;
72793;PMS5003;63436;26.334;50.194;2022-12-07T05:05:50;67;62;
72793;PMS5003;63436;26.334;50.194;2022-12-07T05:08:16;64;64;
72793;PMS5003;63436;26.334;50.194;2022-12-07T05:10:42;65;65;
72793;PMS5003;63436;26.334;50.194;2022-12-07T05:13:06;71;65;
72793;PMS5003;63436;26.334;50.194;2022-12-07T05:15:32;72;63;
72793;PMS5003;63436;26.334;50.194;2022-12-07T05:17:58;68;62;
72793;PMS5003;63436;26.334;50.194;2022-12-07T05:20:23;72;67;
72793;PMS5003;63436;26.334;50.194;2022-12-07T05:22:48;69;65;
72793;PMS5003;63436;26.334;50.194;2022-12-07T05:25:14;72;65;
72793;PMS5003;63436;26.334;50.194;2022-12-07T05:27:40;70;64;
72793;PMS5003;63436;26.334;50.194;2022-12-07T05:30:05;74;68;
72793;PMS5003;63436;26.334;50.194;2022-12-07T05:32:30;67;67;
72793;PMS5003;63436;26.334;50.194;2022-12-07T05:34:56;68;62;
72793;PMS5003;63436;26.334;50.194;2022-12-07T05:37:20;75;71;
72793;PMS5003;63436;26.334;50.194;2022-12-07T05:39:46;79;71;
72793;PMS5003;63436;26.334;50.194;2022-12-07T05:42:12;75;69;
72793;PMS5003;63436;26.334;50.194;2022-12-07T05:44:37;77;68;
72793;PMS5003;63436;26.334;50.194;2022-12-07T05:47:02;71;63;
72793;PMS5003;63436;26.334;50.194;2022-12-07T05:49:29;67;63;
72793;PMS5003;63436;26.334;50.194;2022-12-07T05:51:54;75;70;
72793;PMS5003;63436;26.334;50.194;2022-12-07T05:54:19;68;59;
72793;PMS5003;63436;26.334;50.194;2022-12-07T05:56:45;73;66;
72793;PMS5003;63436;26.334;50.194;2022-12-07T05:59:10;67;61;
72793;PMS5003;63436;26.334;50.194;2022-12-07T06:01:35;57;54;
72793;PMS5003;63436;26.334;50.194;2022-12-07T06:04:01;55;52;
72793;PMS5003;63436;26.334;50.194;2022-12-07T06:06:26;56;49;
72793;PMS5003;63436;26.334;50.194;2022-12-07T06:08:52;47;45;
72793;PMS5003;63436;26.334;50.194;2022-12-07T06:11:17;47;45;
72793;PMS5003;63436;26.334;50.194;2022-12-07T06:13:43;50;49;
72793;PMS5003;63436;26.334;50.194;2022-12-07T06:16:08;50;49;
72793;PMS5003;63436;26.334;50.194;2022-12-07T06:18:34;53;52;
72793;PMS5003;63436;26.334;50.194;2022-12-07T06:20:59;56;48;
72793;PMS5003;63436;26.334;50.194;2022-12-07T06:23:25;54;50;
72793;PMS5003;63436;26.334;50.194;2022-12-07T06:25:50;54;50;
72793;PMS5003;63436;26.334;50.194;2022-12-07T06:28:15;45;43;
72793;PMS5003;63436;26.334;50.194;2022-12-07T06:30:40;50;44;
72793;PMS5003;63436;26.334;50.194;2022-12-07T06:33:06;50;46;
72793;PMS5003;63436;26.334;50.194;2022-12-07T06:35:32;58;50;
72793;PMS5003;63436;26.334;50.194;2022-12-07T06:37:57;50;47;
72793;PMS5003;63436;26.334;50.194;2022-12-07T06:40:28;60;52;
72793;PMS5003;63436;26.334;50.194;2022-12-07T06:42:48;49;49;
72793;PMS5003;63436;26.334;50.194;2022-12-07T06:45:14;52;47;
72793;PMS5003;63436;26.334;50.194;2022-12-07T06:47:39;50;49;
72793;PMS5003;63436;26.334;50.194;2022-12-07T06:50:05;55;51;
72793;PMS5003;63436;26.334;50.194;2022-12-07T06:52:30;51;51;
72793;PMS5003;63436;26.334;50.194;2022-12-07T06:54:56;52;51;
72793;PMS5003;63436;26.334;50.194;2022-12-07T06:57:21;50;48;
72793;PMS5003;63436;26.334;50.194;2022-12-07T06:59:46;51;48;
72793;PMS5003;63436;26.334;50.194;2022-12-07T07:02:11;52;48;
72793;PMS5003;63436;26.334;50.194;2022-12-07T07:04:36;51;48;
72793;PMS5003;63436;26.334;50.194;2022-12-07T07:07:02;51;47;
72793;PMS5003;63436;26.334;50.194;2022-12-07T07:09:27;50;47;
72793;PMS5003;63436;26.334;50.194;2022-12-07T07:11:52;51;47;
72793;PMS5003;63436;26.334;50.194;2022-12-07T07:14:18;53;47;
72793;PMS5003;63436;26.334;50.194;2022-12-07T07:16:44;56;50;
72793;PMS5003;63436;26.334;50.194;2022-12-07T07:19:09;52;47;
72793;PMS5003;63436;26.334;50.194;2022-12-07T07:21:36;52;48;
72793;PMS5003;63436;26.334;50.194;2022-12-07T07:24:00;53;49;
72793;PMS5003;63436;26.334;50.194;2022-12-07T07:26:26;53;47;
72793;PMS5003;63436;26.334;50.194;2022-12-07T07:28:51;52;44;
72793;PMS5003;63436;26.334;50.194;2022-12-07T07:31:17;50;49;
72793;PMS5003;63436;26.334;50.194;2022-12-07T07:33:42;49;46;
72793;PMS5003;63436;26.334;50.194;2022-12-07T07:36:08;57;50;
72793;PMS5003;63436;26.334;50.194;2022-12-07T07:38:33;48;45;
72793;PMS5003;63436;26.334;50.194;2022-12-07T07:40:58;44;42;
72793;PMS5003;63436;26.334;50.194;2022-12-07T07:43:23;53;46;
72793;PMS5003;63436;26.334;50.194;2022-12-07T07:45:49;45;44;
72793;PMS5003;63436;26.334;50.194;2022-12-07T07:48:20;55;47;
72793;PMS5003;63436;26.334;50.194;2022-12-07T07:50:40;50;45;
72793;PMS5003;63436;26.334;50.194;2022-12-07T07:53:05;52;50;
72793;PMS5003;63436;26.334;50.194;2022-12-07T07:55:31;49;48;
72793;PMS5003;63436;26.334;50.194;2022-12-07T07:57:56;55;55;
72793;PMS5003;63436;26.334;50.194;2022-12-07T08:00:22;51;47;
72793;PMS5003;63436;26.334;50.194;2022-12-07T08:02:48;53;48;
72793;PMS5003;63436;26.334;50.194;2022-12-07T08:05:13;55;51;
72793;PMS5003;63436;26.334;50.194;2022-12-07T08:07:39;50;50;
72793;PMS5003;63436;26.334;50.194;2022-12-07T08:10:04;48;46;
72793;PMS5003;63436;26.334;50.194;2022-12-07T08:12:29;49;44;
72793;PMS5003;63436;26.334;50.194;2022-12-07T08:14:55;42;40;
72793;PMS5003;63436;26.334;50.194;2022-12-07T08:17:20;48;43;
72793;PMS5003;63436;26.334;50.194;2022-12-07T08:19:46;46;44;
72793;PMS5003;63436;26.334;50.194;2022-12-07T08:22:11;43;34;
72793;PMS5003;63436;26.334;50.194;2022-12-07T08:24:37;34;32;
72793;PMS5003;63436;26.334;50.194;2022-12-07T08:27:03;40;36;
72793;PMS5003;63436;26.334;50.194;2022-12-07T08:29:27;33;31;
72793;PMS5003;63436;26.334;50.194;2022-12-07T08:31:53;40;34;
72793;PMS5003;63436;26.334;50.194;2022-12-07T08:34:19;38;31;
72793;PMS5003;63436;26.334;50.194;2022-12-07T08:36:44;40;32;
72793;PMS5003;63436;26.334;50.194;2022-12-07T08:39:09;37;34;
72793;PMS5003;63436;26.334;50.194;2022-12-07T08:41:35;40;31;
72793;PMS5003;63436;26.334;50.194;2022-12-07T08:44:00;29;28;
72793;PMS5003;63436;26.334;50.194;2022-12-07T08:46:26;32;28;
72793;PMS5003;63436;26.334;50.194;2022-12-07T08:48:52;32;30;
72793;PMS5003;63436;26.334;50.194;2022-12-07T08:51:16;30;26;
72793;PMS5003;63436;26.334;50.194;2022-12-07T08:53:42;31;28;
72793;PMS5003;63436;26.334;50.194;2022-12-07T08:56:07;37;31;
72793;PMS5003;63436;26.334;50.194;2022-12-07T08:58:32;36;32;
72793;PMS5003;63436;26.334;50.194;2022-12-07T09:00:57;41;36;
72793;PMS5003;63436;26.334;50.194;2022-12-07T09:03:23;34;32;
72793;PMS5003;63436;26.334;50.194;2022-12-07T09:05:48;34;30;
72793;PMS5003;63436;26.334;50.194;2022-12-07T09:08:14;37;33;
72793;PMS5003;63436;26.334;50.194;2022-12-07T09:10:40;38;35;
72793;PMS5003;63436;26.334;50.194;2022-12-07T09:13:04;30;29;
72793;PMS5003;63436;26.334;50.194;2022-12-07T09:15:30;33;30;
72793;PMS5003;63436;26.334;50.194;2022-12-07T09:17:56;36;34;
72793;PMS5003;63436;26.334;50.194;2022-12-07T09:20:20;38;32;
72793;PMS5003;63436;26.334;50.194;2022-12-07T09:22:45;39;33;
72793;PMS5003;63436;26.334;50.194;2022-12-07T09:25:11;34;31;
72793;PMS5003;63436;26.334;50.194;2022-12-07T09:27:36;29;29;
72793;PMS5003;63436;26.334;50.194;2022-12-07T09:30:02;40;31;
72793;PMS5003;63436;26.334;50.194;2022-12-07T09:32:27;33;29;
72793;PMS5003;63436;26.334;50.194;2022-12-07T09:34:53;35;33;
72793;PMS5003;63436;26.334;50.194;2022-12-07T09:37:18;26;26;
72793;PMS5003;63436;26.334;50.194;2022-12-07T09:39:49;30;27;
72793;PMS5003;63436;26.334;50.194;2022-12-07T09:42:25;39;33;
72793;PMS5003;63436;26.334;50.194;2022-12-07T09:44:34;35;30;
72793;PMS5003;63436;26.334;50.194;2022-12-07T09:46:59;40;35;
72793;PMS5003;63436;26.334;50.194;2022-12-07T09:49:25;36;31;
72793;PMS5003;63436;26.334;50.194;2022-12-07T09:54:16;34;29;
72793;PMS5003;63436;26.334;50.194;2022-12-07T09:56:41;40;33;
72793;PMS5003;63436;26.334;50.194;2022-12-07T09:59:09;37;33;
72793;PMS5003;63436;26.334;50.194;2022-12-07T10:01:32;32;31;
72793;PMS5003;63436;26.334;50.194;2022-12-07T10:04:00;34;31;
72793;PMS5003;63436;26.334;50.194;2022-12-07T10:06:22;33;32;
72793;PMS5003;63436;26.334;50.194;2022-12-07T10:08:48;35;33;
72793;PMS5003;63436;26.334;50.194;2022-12-07T10:11:14;29;28;
72793;PMS5003;63436;26.334;50.194;2022-12-07T10:13:39;33;31;
72793;PMS5003;63436;26.334;50.194;2022-12-07T10:16:05;37;32;
72793;PMS5003;63436;26.334;50.194;2022-12-07T10:18:31;29;26;
72793;PMS5003;63436;26.334;50.194;2022-12-07T10:21:00;27;27;
72793;PMS5003;63436;26.334;50.194;2022-12-07T10:23:23;30;30;
72793;PMS5003;63436;26.334;50.194;2022-12-07T10:25:50;36;35;
72793;PMS5003;63436;26.334;50.194;2022-12-07T10:28:12;36;32;
72793;PMS5003;63436;26.334;50.194;2022-12-07T10:33:03;35;31;
72793;PMS5003;63436;26.334;50.194;2022-12-07T10:35:27;40;36;
72793;PMS5003;63436;26.334;50.194;2022-12-07T10:37:53;36;34;
72793;PMS5003;63436;26.334;50.194;2022-12-07T10:40:25;32;31;
72793;PMS5003;63436;26.334;50.194;2022-12-07T10:45:13;33;31;
72793;PMS5003;63436;26.334;50.194;2022-12-07T10:47:34;37;32;
72793;PMS5003;63436;26.334;50.194;2022-12-07T10:52:30;36;31;
72793;PMS5003;63436;26.334;50.194;2022-12-07T10:54:52;34;32;
72793;PMS5003;63436;26.334;50.194;2022-12-07T10:57:20;31;31;
72793;PMS5003;63436;26.334;50.194;2022-12-07T10:59:45;37;33;
72793;PMS5003;63436;26.334;50.194;2022-12-07T11:02:09;33;32;
72793;PMS5003;63436;26.334;50.194;2022-12-07T11:04:35;43;35;
72793;PMS5003;63436;26.334;50.194;2022-12-07T11:06:58;36;30;
72793;PMS5003;63436;26.334;50.194;2022-12-07T11:09:28;38;31;
72793;PMS5003;63436;26.334;50.194;2022-12-07T11:11:48;36;34;
72793;PMS5003;63436;26.334;50.194;2022-12-07T11:14:15;34;31;
72793;PMS5003;63436;26.334;50.194;2022-12-07T11:16:43;34;33;
72793;PMS5003;63436;26.334;50.194;2022-12-07T11:19:09;35;32;
72793;PMS5003;63436;26.334;50.194;2022-12-07T11:21:30;38;34;
72793;PMS5003;63436;26.334;50.194;2022-12-07T11:23:56;33;31;
72793;PMS5003;63436;26.334;50.194;2022-12-07T11:26:24;36;29;
72793;PMS5003;63436;26.334;50.194;2022-12-07T11:28:50;30;29;
72793;PMS5003;63436;26.334;50.194;2022-12-07T11:31:13;35;34;
72793;PMS5003;63436;26.334;50.194;2022-12-07T11:33:37;32;31;
72793;PMS5003;63436;26.334;50.194;2022-12-07T11:36:03;35;32;
72793;PMS5003;63436;26.334;50.194;2022-12-07T11:38:28;34;31;
72793;PMS5003;63436;26.334;50.194;2022-12-07T11:40:53;32;29;
72793;PMS5003;63436;26.334;50.194;2022-12-07T11:43:20;31;29;
72793;PMS5003;63436;26.334;50.194;2022-12-07T11:45:44;36;31;
72793;PMS5003;63436;26.334;50.194;2022-12-07T11:48:10;33;30;
72793;PMS5003;63436;26.334;50.194;2022-12-07T11:50:35;34;30;
72793;PMS5003;63436;26.334;50.194;2022-12-07T11:53:00;29;29;
72793;PMS5003;63436;26.334;50.194;2022-12-07T11:55:26;34;30;
72793;PMS5003;63436;26.334;50.194;2022-12-07T11:57:51;38;34;
72793;PMS5003;63436;26.334;50.194;2022-12-07T12:00:16;35;31;
72793;PMS5003;63436;26.334;50.194;2022-12-07T12:02:43;31;29;
72793;PMS5003;63436;26.334;50.194;2022-12-07T12:05:12;35;32;
72793;PMS5003;63436;26.334;50.194;2022-12-07T12:07:33;38;32;
72793;PMS5003;63436;26.334;50.194;2022-12-07T12:09:59;30;30;
72793;PMS5003;63436;26.334;50.194;2022-12-07T12:12:29;35;31;
72793;PMS5003;63436;26.334;50.194;2022-12-07T12:14:53;37;32;
72793;PMS5003;63436;26.334;50.194;2022-12-07T12:17:20;39;36;
72793;PMS5003;63436;26.334;50.194;2022-12-07T12:19:40;38;34;
72793;PMS5003;63436;26.334;50.194;2022-12-07T12:22:07;43;37;
72793;PMS5003;63436;26.334;50.194;2022-12-07T12:24:31;37;34;
72793;PMS5003;63436;26.334;50.194;2022-12-07T12:26:56;35;32;
72793;PMS5003;63436;26.334;50.194;2022-12-07T12:29:21;34;32;
72793;PMS5003;63436;26.334;50.194;2022-12-07T12:31:47;41;36;
72793;PMS5003;63436;26.334;50.194;2022-12-07T12:36:43;40;35;
72793;PMS5003;63436;26.334;50.194;2022-12-07T12:39:09;50;48;
72793;PMS5003;63436;26.334;50.194;2022-12-07T12:43:54;41;38;
72793;PMS5003;63436;26.334;50.194;2022-12-07T12:48:44;31;30;
72793;PMS5003;63436;26.334;50.194;2022-12-07T12:53:35;41;37;
72793;PMS5003;63436;26.334;50.194;2022-12-07T12:58:28;38;37;
72793;PMS5003;63436;26.334;50.194;2022-12-07T13:03:21;38;38;
72793;PMS5003;63436;26.334;50.194;2022-12-07T13:05:41;38;34;
72793;PMS5003;63436;26.334;50.194;2022-12-07T13:08:11;40;37;
72793;PMS5003;63436;26.334;50.194;2022-12-07T13:10:35;37;34;
72793;PMS5003;63436;26.334;50.194;2022-12-07T13:13:01;35;33;
72793;PMS5003;63436;26.334;50.194;2022-12-07T13:15:32;33;31;
72793;PMS5003;63436;26.334;50.194;2022-12-07T13:17:57;37;33;
72793;PMS5003;63436;26.334;50.194;2022-12-07T13:20:39;41;39;
72793;PMS5003;63436;26.334;50.194;2022-12-07T13:22:46;41;37;
72793;PMS5003;63436;26.334;50.194;2022-12-07T13:25:05;46;40;
72793;PMS5003;63436;26.334;50.194;2022-12-07T13:27:29;44;41;
72793;PMS5003;63436;26.334;50.194;2022-12-07T13:29:56;42;41;
72793;PMS5003;63436;26.334;50.194;2022-12-07T13:32:22;39;37;
72793;PMS5003;63436;26.334;50.194;2022-12-07T13:34:46;44;41;
72793;PMS5003;63436;26.334;50.194;2022-12-07T13:37:12;43;37;
72793;PMS5003;63436;26.334;50.194;2022-12-07T13:39:44;37;35;
72793;PMS5003;63436;26.334;50.194;2022-12-07T13:42:08;42;41;
72793;PMS5003;63436;26.334;50.194;2022-12-07T13:44:28;42;39;
72793;PMS5003;63436;26.334;50.194;2022-12-07T13:46:54;43;38;
72793;PMS5003;63436;26.334;50.194;2022-12-07T13:49:19;46;40;
72793;PMS5003;63436;26.334;50.194;2022-12-07T13:51:43;46;40;
72793;PMS5003;63436;26.334;50.194;2022-12-07T13:54:09;41;36;
72793;PMS5003;63436;26.334;50.194;2022-12-07T13:56:34;38;38;
72793;PMS5003;63436;26.334;50.194;2022-12-07T13:58:59;42;36;
72793;PMS5003;63436;26.334;50.194;2022-12-07T14:01:24;43;38;
72793;PMS5003;63436;26.334;50.194;2022-12-07T14:03:49;42;40;
72793;PMS5003;63436;26.334;50.194;2022-12-07T14:06:18;42;40;
72793;PMS5003;63436;26.334;50.194;2022-12-07T14:08:40;44;40;
72793;PMS5003;63436;26.334;50.194;2022-12-07T14:11:05;42;39;
72793;PMS5003;63436;26.334;50.194;2022-12-07T14:13:32;46;38;
72793;PMS5003;63436;26.334;50.194;2022-12-07T14:15:56;43;42;
72793;PMS5003;63436;26.334;50.194;2022-12-07T14:18:25;39;37;
72793;PMS5003;63436;26.334;50.194;2022-12-07T14:20:48;41;38;
72793;PMS5003;63436;26.334;50.194;2022-12-07T14:25:45;46;42;
72793;PMS5003;63436;26.334;50.194;2022-12-07T14:28:04;44;39;
72793;PMS5003;63436;26.334;50.194;2022-12-07T14:30:29;45;43;
72793;PMS5003;63436;26.334;50.194;2022-12-07T14:32:55;49;45;
72793;PMS5003;63436;26.334;50.194;2022-12-07T14:35:20;55;50;
72793;PMS5003;63436;26.334;50.194;2022-12-07T14:37:45;57;53;
72793;PMS5003;63436;26.334;50.194;2022-12-07T14:40:12;61;53;
72793;PMS5003;63436;26.334;50.194;2022-12-07T14:42:37;55;51;
72793;PMS5003;63436;26.334;50.194;2022-12-07T14:45:01;42;39;
72793;PMS5003;63436;26.334;50.194;2022-12-07T14:47:27;43;41;
72793;PMS5003;63436;26.334;50.194;2022-12-07T14:49:53;41;41;
72793;PMS5003;63436;26.334;50.194;2022-12-07T14:52:19;44;44;
72793;PMS5003;63436;26.334;50.194;2022-12-07T14:54:48;39;38;
72793;PMS5003;63436;26.334;50.194;2022-12-07T14:57:09;43;43;
72793;PMS5003;63436;26.334;50.194;2022-12-07T14:59:34;44;40;
72793;PMS5003;63436;26.334;50.194;2022-12-07T15:01:59;45;41;
72793;PMS5003;63436;26.334;50.194;2022-12-07T15:04:25;35;35;
72793;PMS5003;63436;26.334;50.194;2022-12-07T15:06:56;51;48;
72793;PMS5003;63436;26.334;50.194;2022-12-07T15:09:16;47;43;
72793;PMS5003;63436;26.334;50.194;2022-12-07T15:11:41;45;43;
72793;PMS5003;63436;26.334;50.194;2022-12-07T15:14:07;47;46;
72793;PMS5003;63436;26.334;50.194;2022-12-07T15:16:33;48;45;
72793;PMS5003;63436;26.334;50.194;2022-12-07T15:19:00;39;38;
72793;PMS5003;63436;26.334;50.194;2022-12-07T15:21:23;48;43;
72793;PMS5003;63436;26.334;50.194;2022-12-07T15:23:48;43;39;
72793;PMS5003;63436;26.334;50.194;2022-12-07T15:26:14;47;43;
72793;PMS5003;63436;26.334;50.194;2022-12-07T15:28:39;40;39;
72793;PMS5003;63436;26.334;50.194;2022-12-07T15:31:05;43;41;
72793;PMS5003;63436;26.334;50.194;2022-12-07T15:33:30;47;43;
72793;PMS5003;63436;26.334;50.194;2022-12-07T15:35:55;52;46;
72793;PMS5003;63436;26.334;50.194;2022-12-07T15:38:20;41;40;
72793;PMS5003;63436;26.334;50.194;2022-12-07T15:40:46;43;40;
72793;PMS5003;63436;26.334;50.194;2022-12-07T15:43:11;37;37;
72793;PMS5003;63436;26.334;50.194;2022-12-07T15:45:37;41;39;
72793;PMS5003;63436;26.334;50.194;2022-12-07T15:48:03;43;42;
72793;PMS5003;63436;26.334;50.194;2022-12-07T15:50:27;42;39;
72793;PMS5003;63436;26.334;50.194;2022-12-07T15:52:53;42;40;
72793;PMS5003;63436;26.334;50.194;2022-12-07T15:55:19;46;45;
72793;PMS5003;63436;26.334;50.194;2022-12-07T15:57:44;45;42;
72793;PMS5003;63436;26.334;50.194;2022-12-07T16:00:10;41;40;
72793;PMS5003;63436;26.334;50.194;2022-12-07T16:02:36;45;44;
72793;PMS5003;63436;26.334;50.194;2022-12-07T16:05:01;45;42;
72793;PMS5003;63436;26.334;50.194;2022-12-07T16:07:26;43;42;
72793;PMS5003;63436;26.334;50.194;2022-12-07T16:09:51;46;44;
72793;PMS5003;63436;26.334;50.194;2022-12-07T16:12:17;45;41;
72793;PMS5003;63436;26.334;50.194;2022-12-07T16:14:42;43;42;
72793;PMS5003;63436;26.334;50.194;2022-12-07T16:17:09;47;46;